sensor_id;sensor_type;location;lat;lon;timestamp;P1;durP1;ratioP1;P2;durP2;ratioP2
19733;SDS011;10018;51.230;7.860;2023-09-19T00:00:37;14.97;;;5.27;;
19733;SDS011;10018;51.230;7.860;2023-09-19T00:03:05;8.53;;;5.17;;
19733;SDS011;10018;51.230;7.860;2023-09-19T00:05:33;8.50;;;4.87;;
19733;SDS011;10018;51.230;7.860;2023-09-19T00:08:05;10.83;;;5.80;;
19733;SDS011;10018;51.230;7.860;2023-09-19T00:10:32;11.10;;;5.47;;
19733;SDS011;10018;51.230;7.860;2023-09-19T00:13:01;9.57;;;5.10;;
19733;SDS011;10018;51.230;7.860;2023-09-19T00:15:30;12.50;;;5.73;;
19733;SDS011;10018;51.230;7.860;2023-09-19T00:18:01;9.87;;;6.40;;
19733;SDS011;10018;51.230;7.860;2023-09-19T00:20:26;8.33;;;5.60;;
19733;SDS011;10018;51.230;7.860;2023-09-19T00:22:54;10.27;;;5.97;;
19733;SDS011;10018;51.230;7.860;2023-09-19T00:25:20;8.20;;;6.07;;
19733;SDS011;10018;51.230;7.860;2023-09-19T00:27:46;9.50;;;5.87;;
19733;SDS011;10018;51.230;7.860;2023-09-19T00:30:14;9.70;;;5.93;;
19733;SDS011;10018;51.230;7.860;2023-09-19T00:32:47;8.73;;;5.87;;
19733;SDS011;10018;51.230;7.860;2023-09-19T00:35:16;11.03;;;5.63;;
19733;SDS011;10018;51.230;7.860;2023-09-19T00:37:42;13.77;;;5.90;;
19733;SDS011;10018;51.230;7.860;2023-09-19T00:40:10;10.00;;;5.63;;
19733;SDS011;10018;51.230;7.860;2023-09-19T00:42:40;9.03;;;5.50;;
19733;SDS011;10018;51.230;7.860;2023-09-19T00:45:10;7.80;;;5.30;;
19733;SDS011;10018;51.230;7.860;2023-09-19T00:47:49;11.70;;;6.40;;
19733;SDS011;10018;51.230;7.860;2023-09-19T00:50:20;11.17;;;5.40;;
19733;SDS011;10018;51.230;7.860;2023-09-19T00:52:52;10.43;;;5.60;;
19733;SDS011;10018;51.230;7.860;2023-09-19T00:55:21;9.20;;;4.67;;
19733;SDS011;10018;51.230;7.860;2023-09-19T00:57:48;12.73;;;5.40;;
19733;SDS011;10018;51.230;7.860;2023-09-19T01:00:15;9.00;;;4.67;;
19733;SDS011;10018;51.230;7.860;2023-09-19T01:02:41;13.57;;;4.87;;
19733;SDS011;10018;51.230;7.860;2023-09-19T01:05:08;9.40;;;4.27;;
19733;SDS011;10018;51.230;7.860;2023-09-19T01:07:34;10.10;;;4.00;;
19733;SDS011;10018;51.230;7.860;2023-09-19T01:10:04;10.60;;;4.30;;
19733;SDS011;10018;51.230;7.860;2023-09-19T01:12:48;12.47;;;4.77;;
19733;SDS011;10018;51.230;7.860;2023-09-19T01:15:51;13.00;;;4.70;;
19733;SDS011;10018;51.230;7.860;2023-09-19T01:30:10;11.60;;;4.30;;
19733;SDS011;10018;51.230;7.860;2023-09-19T01:32:47;8.63;;;3.60;;
19733;SDS011;10018;51.230;7.860;2023-09-19T01:35:17;10.23;;;3.27;;
19733;SDS011;10018;51.230;7.860;2023-09-19T01:37:43;9.03;;;3.43;;
19733;SDS011;10018;51.230;7.860;2023-09-19T01:40:10;14.00;;;3.67;;
19733;SDS011;10018;51.230;7.860;2023-09-19T01:48:19;14.53;;;3.50;;
19733;SDS011;10018;51.230;7.860;2023-09-19T01:51:05;9.10;;;3.00;;
19733;SDS011;10018;51.230;7.860;2023-09-19T01:53:44;11.00;;;3.43;;
19733;SDS011;10018;51.230;7.860;2023-09-19T01:56:32;10.20;;;3.27;;
19733;SDS011;10018;51.230;7.860;2023-09-19T01:59:36;9.70;;;3.03;;
19733;SDS011;10018;51.230;7.860;2023-09-19T02:02:06;11.00;;;2.87;;
19733;SDS011;10018;51.230;7.860;2023-09-19T02:04:33;10.20;;;3.03;;
19733;SDS011;10018;51.230;7.860;2023-09-19T02:07:00;13.93;;;2.83;;
19733;SDS011;10018;51.230;7.860;2023-09-19T02:09:26;11.90;;;3.23;;
19733;SDS011;10018;51.230;7.860;2023-09-19T02:11:52;12.00;;;3.10;;
19733;SDS011;10018;51.230;7.860;2023-09-19T02:14:17;8.17;;;3.07;;
19733;SDS011;10018;51.230;7.860;2023-09-19T02:16:44;9.63;;;3.57;;
19733;SDS011;10018;51.230;7.860;2023-09-19T02:19:10;8.70;;;3.60;;
19733;SDS011;10018;51.230;7.860;2023-09-19T02:21:36;11.83;;;3.87;;
19733;SDS011;10018;51.230;7.860;2023-09-19T02:24:05;15.00;;;3.60;;
19733;SDS011;10018;51.230;7.860;2023-09-19T02:26:35;11.37;;;3.70;;
19733;SDS011;10018;51.230;7.860;2023-09-19T02:29:01;9.13;;;4.03;;
19733;SDS011;10018;51.230;7.860;2023-09-19T02:31:30;9.47;;;3.80;;
19733;SDS011;10018;51.230;7.860;2023-09-19T02:33:56;10.17;;;3.63;;
19733;SDS011;10018;51.230;7.860;2023-09-19T02:36:22;13.73;;;4.17;;
19733;SDS011;10018;51.230;7.860;2023-09-19T02:38:48;10.00;;;4.50;;
19733;SDS011;10018;51.230;7.860;2023-09-19T02:41:14;10.67;;;4.07;;
19733;SDS011;10018;51.230;7.860;2023-09-19T02:43:40;12.07;;;4.63;;
19733;SDS011;10018;51.230;7.860;2023-09-19T02:46:08;7.43;;;3.80;;
19733;SDS011;10018;51.230;7.860;2023-09-19T02:48:36;9.70;;;3.70;;
19733;SDS011;10018;51.230;7.860;2023-09-19T02:51:02;10.70;;;4.07;;
19733;SDS011;10018;51.230;7.860;2023-09-19T02:53:30;13.30;;;4.07;;
19733;SDS011;10018;51.230;7.860;2023-09-19T02:55:57;14.13;;;3.83;;
19733;SDS011;10018;51.230;7.860;2023-09-19T02:58:23;10.73;;;4.10;;
19733;SDS011;10018;51.230;7.860;2023-09-19T03:00:50;11.27;;;4.00;;
19733;SDS011;10018;51.230;7.860;2023-09-19T03:03:16;10.67;;;3.87;;
19733;SDS011;10018;51.230;7.860;2023-09-19T03:05:44;13.87;;;3.90;;
19733;SDS011;10018;51.230;7.860;2023-09-19T03:08:13;11.67;;;4.13;;
19733;SDS011;10018;51.230;7.860;2023-09-19T03:10:41;13.40;;;3.60;;
19733;SDS011;10018;51.230;7.860;2023-09-19T03:13:07;10.43;;;4.13;;
19733;SDS011;10018;51.230;7.860;2023-09-19T03:15:35;14.43;;;4.23;;
19733;SDS011;10018;51.230;7.860;2023-09-19T03:18:03;13.87;;;4.17;;
19733;SDS011;10018;51.230;7.860;2023-09-19T03:20:29;15.03;;;4.30;;
19733;SDS011;10018;51.230;7.860;2023-09-19T03:22:55;13.53;;;3.90;;
19733;SDS011;10018;51.230;7.860;2023-09-19T03:25:22;12.10;;;3.90;;
19733;SDS011;10018;51.230;7.860;2023-09-19T03:27:48;11.37;;;3.50;;
19733;SDS011;10018;51.230;7.860;2023-09-19T03:30:13;9.20;;;3.30;;
19733;SDS011;10018;51.230;7.860;2023-09-19T03:32:43;11.60;;;3.40;;
19733;SDS011;10018;51.230;7.860;2023-09-19T03:35:10;10.50;;;3.23;;
19733;SDS011;10018;51.230;7.860;2023-09-19T03:37:39;9.50;;;3.40;;
19733;SDS011;10018;51.230;7.860;2023-09-19T03:40:06;12.67;;;3.67;;
19733;SDS011;10018;51.230;7.860;2023-09-19T03:42:37;9.47;;;3.20;;
19733;SDS011;10018;51.230;7.860;2023-09-19T03:45:06;8.57;;;3.27;;
19733;SDS011;10018;51.230;7.860;2023-09-19T03:47:37;9.70;;;3.20;;
19733;SDS011;10018;51.230;7.860;2023-09-19T03:50:04;13.07;;;3.30;;
19733;SDS011;10018;51.230;7.860;2023-09-19T03:52:30;10.50;;;3.33;;
19733;SDS011;10018;51.230;7.860;2023-09-19T03:54:55;14.27;;;3.50;;
19733;SDS011;10018;51.230;7.860;2023-09-19T03:57:21;11.23;;;3.10;;
19733;SDS011;10018;51.230;7.860;2023-09-19T03:59:49;8.60;;;3.23;;
19733;SDS011;10018;51.230;7.860;2023-09-19T04:02:18;13.73;;;2.97;;
19733;SDS011;10018;51.230;7.860;2023-09-19T04:04:47;9.87;;;2.73;;
19733;SDS011;10018;51.230;7.860;2023-09-19T04:07:13;8.50;;;2.60;;
19733;SDS011;10018;51.230;7.860;2023-09-19T04:09:39;14.07;;;2.87;;
19733;SDS011;10018;51.230;7.860;2023-09-19T04:12:05;8.20;;;2.70;;
19733;SDS011;10018;51.230;7.860;2023-09-19T04:14:33;10.10;;;2.90;;
19733;SDS011;10018;51.230;7.860;2023-09-19T04:16:59;9.57;;;3.10;;
19733;SDS011;10018;51.230;7.860;2023-09-19T04:19:25;13.40;;;3.20;;
19733;SDS011;10018;51.230;7.860;2023-09-19T04:21:51;12.87;;;3.07;;
19733;SDS011;10018;51.230;7.860;2023-09-19T04:24:16;9.90;;;3.10;;
19733;SDS011;10018;51.230;7.860;2023-09-19T04:26:46;11.30;;;3.20;;
19733;SDS011;10018;51.230;7.860;2023-09-19T04:29:14;13.90;;;2.80;;
19733;SDS011;10018;51.230;7.860;2023-09-19T04:31:40;10.50;;;2.80;;
19733;SDS011;10018;51.230;7.860;2023-09-19T04:34:09;7.90;;;2.63;;
19733;SDS011;10018;51.230;7.860;2023-09-19T04:36:35;10.93;;;2.57;;
19733;SDS011;10018;51.230;7.860;2023-09-19T04:39:02;9.70;;;2.70;;
19733;SDS011;10018;51.230;7.860;2023-09-19T04:41:30;11.43;;;2.70;;
19733;SDS011;10018;51.230;7.860;2023-09-19T04:43:55;10.67;;;2.80;;
19733;SDS011;10018;51.230;7.860;2023-09-19T04:46:21;8.97;;;2.50;;
19733;SDS011;10018;51.230;7.860;2023-09-19T04:48:47;9.47;;;2.70;;
19733;SDS011;10018;51.230;7.860;2023-09-19T04:51:12;11.20;;;2.90;;
19733;SDS011;10018;51.230;7.860;2023-09-19T04:53:38;8.47;;;2.23;;
19733;SDS011;10018;51.230;7.860;2023-09-19T04:56:07;10.40;;;2.77;;
19733;SDS011;10018;51.230;7.860;2023-09-19T04:58:33;8.07;;;2.30;;
19733;SDS011;10018;51.230;7.860;2023-09-19T05:00:59;10.57;;;2.33;;
19733;SDS011;10018;51.230;7.860;2023-09-19T05:03:24;11.90;;;3.27;;
19733;SDS011;10018;51.230;7.860;2023-09-19T05:05:50;11.47;;;2.80;;
19733;SDS011;10018;51.230;7.860;2023-09-19T05:08:15;12.33;;;3.10;;
19733;SDS011;10018;51.230;7.860;2023-09-19T05:10:41;6.57;;;2.43;;
19733;SDS011;10018;51.230;7.860;2023-09-19T05:13:07;13.93;;;3.10;;
19733;SDS011;10018;51.230;7.860;2023-09-19T05:15:33;10.63;;;2.73;;
19733;SDS011;10018;51.230;7.860;2023-09-19T05:17:58;12.70;;;3.03;;
19733;SDS011;10018;51.230;7.860;2023-09-19T05:20:27;11.53;;;3.00;;
19733;SDS011;10018;51.230;7.860;2023-09-19T05:23:04;8.87;;;2.80;;
19733;SDS011;10018;51.230;7.860;2023-09-19T05:25:37;12.67;;;3.17;;
19733;SDS011;10018;51.230;7.860;2023-09-19T05:28:06;10.93;;;2.63;;
19733;SDS011;10018;51.230;7.860;2023-09-19T05:30:33;12.60;;;2.73;;
19733;SDS011;10018;51.230;7.860;2023-09-19T05:33:00;10.83;;;2.70;;
19733;SDS011;10018;51.230;7.860;2023-09-19T05:35:27;12.13;;;2.50;;
19733;SDS011;10018;51.230;7.860;2023-09-19T05:37:53;13.87;;;2.77;;
19733;SDS011;10018;51.230;7.860;2023-09-19T05:40:20;13.87;;;2.93;;
19733;SDS011;10018;51.230;7.860;2023-09-19T05:42:46;10.40;;;2.90;;
19733;SDS011;10018;51.230;7.860;2023-09-19T05:45:12;15.53;;;2.50;;
19733;SDS011;10018;51.230;7.860;2023-09-19T05:47:39;8.10;;;2.20;;
19733;SDS011;10018;51.230;7.860;2023-09-19T05:50:10;8.07;;;2.40;;
19733;SDS011;10018;51.230;7.860;2023-09-19T05:52:37;13.30;;;2.63;;
19733;SDS011;10018;51.230;7.860;2023-09-19T05:55:09;16.27;;;3.00;;
19733;SDS011;10018;51.230;7.860;2023-09-19T05:57:35;10.43;;;2.33;;
19733;SDS011;10018;51.230;7.860;2023-09-19T06:00:04;11.20;;;2.30;;
19733;SDS011;10018;51.230;7.860;2023-09-19T06:02:35;14.40;;;2.27;;
19733;SDS011;10018;51.230;7.860;2023-09-19T06:05:01;11.00;;;2.60;;
19733;SDS011;10018;51.230;7.860;2023-09-19T06:07:27;8.07;;;2.27;;
19733;SDS011;10018;51.230;7.860;2023-09-19T06:10:01;14.73;;;2.60;;
19733;SDS011;10018;51.230;7.860;2023-09-19T06:12:30;13.07;;;2.40;;
19733;SDS011;10018;51.230;7.860;2023-09-19T06:14:58;15.00;;;2.67;;
19733;SDS011;10018;51.230;7.860;2023-09-19T06:17:24;8.77;;;2.33;;
19733;SDS011;10018;51.230;7.860;2023-09-19T06:19:53;12.53;;;1.97;;
19733;SDS011;10018;51.230;7.860;2023-09-19T06:22:20;14.13;;;2.63;;
19733;SDS011;10018;51.230;7.860;2023-09-19T06:24:46;17.17;;;2.50;;
19733;SDS011;10018;51.230;7.860;2023-09-19T06:27:12;10.80;;;2.30;;
19733;SDS011;10018;51.230;7.860;2023-09-19T06:29:38;12.70;;;2.10;;
19733;SDS011;10018;51.230;7.860;2023-09-19T06:32:09;10.33;;;2.20;;
19733;SDS011;10018;51.230;7.860;2023-09-19T06:34:35;14.87;;;2.33;;
19733;SDS011;10018;51.230;7.860;2023-09-19T06:37:02;11.50;;;2.40;;
19733;SDS011;10018;51.230;7.860;2023-09-19T06:39:28;12.87;;;2.37;;
19733;SDS011;10018;51.230;7.860;2023-09-19T06:41:53;12.27;;;2.30;;
19733;SDS011;10018;51.230;7.860;2023-09-19T06:44:19;8.53;;;2.13;;
19733;SDS011;10018;51.230;7.860;2023-09-19T06:46:49;16.37;;;2.83;;
19733;SDS011;10018;51.230;7.860;2023-09-19T06:49:16;11.83;;;2.57;;
19733;SDS011;10018;51.230;7.860;2023-09-19T06:51:42;14.00;;;2.10;;
19733;SDS011;10018;51.230;7.860;2023-09-19T06:54:08;12.40;;;2.10;;
19733;SDS011;10018;51.230;7.860;2023-09-19T06:56:34;10.77;;;2.30;;
19733;SDS011;10018;51.230;7.860;2023-09-19T06:59:00;15.07;;;2.60;;
19733;SDS011;10018;51.230;7.860;2023-09-19T07:01:31;10.90;;;1.90;;
19733;SDS011;10018;51.230;7.860;2023-09-19T07:03:57;11.90;;;2.20;;
19733;SDS011;10018;51.230;7.860;2023-09-19T07:06:22;13.90;;;2.50;;
19733;SDS011;10018;51.230;7.860;2023-09-19T07:08:49;6.57;;;1.90;;
19733;SDS011;10018;51.230;7.860;2023-09-19T07:11:15;18.97;;;3.00;;
19733;SDS011;10018;51.230;7.860;2023-09-19T07:13:41;9.90;;;2.30;;
19733;SDS011;10018;51.230;7.860;2023-09-19T07:16:06;12.07;;;2.60;;
19733;SDS011;10018;51.230;7.860;2023-09-19T07:18:36;12.13;;;2.30;;
19733;SDS011;10018;51.230;7.860;2023-09-19T07:21:02;11.93;;;2.27;;
19733;SDS011;10018;51.230;7.860;2023-09-19T07:23:29;12.90;;;2.53;;
19733;SDS011;10018;51.230;7.860;2023-09-19T07:25:59;12.10;;;2.63;;
19733;SDS011;10018;51.230;7.860;2023-09-19T07:28:30;11.60;;;2.17;;
19733;SDS011;10018;51.230;7.860;2023-09-19T07:30:56;15.93;;;2.60;;
19733;SDS011;10018;51.230;7.860;2023-09-19T07:33:22;14.03;;;2.80;;
19733;SDS011;10018;51.230;7.860;2023-09-19T07:35:49;8.10;;;2.43;;
19733;SDS011;10018;51.230;7.860;2023-09-19T07:38:15;11.17;;;2.80;;
19733;SDS011;10018;51.230;7.860;2023-09-19T07:40:41;11.23;;;2.67;;
19733;SDS011;10018;51.230;7.860;2023-09-19T07:43:12;9.83;;;2.77;;
19733;SDS011;10018;51.230;7.860;2023-09-19T07:45:37;13.83;;;2.70;;
19733;SDS011;10018;51.230;7.860;2023-09-19T07:48:03;10.57;;;2.93;;
19733;SDS011;10018;51.230;7.860;2023-09-19T07:50:33;14.13;;;2.50;;
19733;SDS011;10018;51.230;7.860;2023-09-19T07:53:01;10.97;;;2.63;;
19733;SDS011;10018;51.230;7.860;2023-09-19T07:55:29;10.23;;;2.37;;
19733;SDS011;10018;51.230;7.860;2023-09-19T07:57:55;11.60;;;2.27;;
19733;SDS011;10018;51.230;7.860;2023-09-19T08:00:21;12.33;;;2.13;;
19733;SDS011;10018;51.230;7.860;2023-09-19T08:02:49;11.00;;;2.20;;
19733;SDS011;10018;51.230;7.860;2023-09-19T08:05:16;12.77;;;2.20;;
19733;SDS011;10018;51.230;7.860;2023-09-19T08:07:45;11.40;;;2.70;;
19733;SDS011;10018;51.230;7.860;2023-09-19T08:10:14;13.83;;;2.90;;
19733;SDS011;10018;51.230;7.860;2023-09-19T08:12:41;16.13;;;3.03;;
19733;SDS011;10018;51.230;7.860;2023-09-19T08:15:16;13.30;;;2.37;;
19733;SDS011;10018;51.230;7.860;2023-09-19T08:17:46;17.37;;;2.77;;
19733;SDS011;10018;51.230;7.860;2023-09-19T08:20:12;11.93;;;2.37;;
19733;SDS011;10018;51.230;7.860;2023-09-19T08:22:47;14.67;;;2.33;;
19733;SDS011;10018;51.230;7.860;2023-09-19T08:25:17;14.40;;;2.50;;
19733;SDS011;10018;51.230;7.860;2023-09-19T08:27:46;14.00;;;2.33;;
19733;SDS011;10018;51.230;7.860;2023-09-19T08:30:17;14.17;;;2.90;;
19733;SDS011;10018;51.230;7.860;2023-09-19T08:32:45;11.83;;;2.10;;
19733;SDS011;10018;51.230;7.860;2023-09-19T08:35:13;19.30;;;2.77;;
19733;SDS011;10018;51.230;7.860;2023-09-19T08:37:44;13.73;;;2.80;;
19733;SDS011;10018;51.230;7.860;2023-09-19T08:40:13;13.63;;;2.23;;
19733;SDS011;10018;51.230;7.860;2023-09-19T08:45:33;8.03;;;2.10;;
19733;SDS011;10018;51.230;7.860;2023-09-19T08:48:24;11.93;;;2.60;;
19733;SDS011;10018;51.230;7.860;2023-09-19T08:51:02;16.17;;;3.00;;
19733;SDS011;10018;51.230;7.860;2023-09-19T08:56:16;10.77;;;2.83;;
19733;SDS011;10018;51.230;7.860;2023-09-19T08:58:48;10.70;;;2.63;;
19733;SDS011;10018;51.230;7.860;2023-09-19T09:01:23;7.63;;;2.33;;
19733;SDS011;10018;51.230;7.860;2023-09-19T09:03:52;8.63;;;2.30;;
19733;SDS011;10018;51.230;7.860;2023-09-19T09:06:19;9.53;;;2.23;;
19733;SDS011;10018;51.230;7.860;2023-09-19T09:08:46;10.80;;;2.13;;
19733;SDS011;10018;51.230;7.860;2023-09-19T09:11:13;8.77;;;2.27;;
19733;SDS011;10018;51.230;7.860;2023-09-19T09:13:40;9.30;;;2.00;;
19733;SDS011;10018;51.230;7.860;2023-09-19T09:16:07;9.87;;;2.67;;
19733;SDS011;10018;51.230;7.860;2023-09-19T09:18:34;12.40;;;2.97;;
19733;SDS011;10018;51.230;7.860;2023-09-19T09:21:03;13.03;;;2.40;;
19733;SDS011;10018;51.230;7.860;2023-09-19T09:23:31;11.23;;;2.60;;
19733;SDS011;10018;51.230;7.860;2023-09-19T09:25:57;11.80;;;2.60;;
19733;SDS011;10018;51.230;7.860;2023-09-19T09:28:27;8.00;;;2.07;;
19733;SDS011;10018;51.230;7.860;2023-09-19T09:30:55;12.57;;;2.87;;
19733;SDS011;10018;51.230;7.860;2023-09-19T09:33:26;11.67;;;2.60;;
19733;SDS011;10018;51.230;7.860;2023-09-19T09:35:53;11.97;;;2.53;;
19733;SDS011;10018;51.230;7.860;2023-09-19T09:38:47;11.97;;;2.40;;
19733;SDS011;10018;51.230;7.860;2023-09-19T09:41:13;9.93;;;2.60;;
19733;SDS011;10018;51.230;7.860;2023-09-19T09:43:52;8.43;;;2.77;;
19733;SDS011;10018;51.230;7.860;2023-09-19T09:46:18;13.20;;;3.00;;
19733;SDS011;10018;51.230;7.860;2023-09-19T09:48:45;12.60;;;3.00;;
19733;SDS011;10018;51.230;7.860;2023-09-19T09:51:29;10.40;;;2.63;;
19733;SDS011;10018;51.230;7.860;2023-09-19T09:54:17;10.50;;;2.77;;
19733;SDS011;10018;51.230;7.860;2023-09-19T09:56:51;5.70;;;1.97;;
19733;SDS011;10018;51.230;7.860;2023-09-19T09:59:19;9.13;;;2.13;;
19733;SDS011;10018;51.230;7.860;2023-09-19T10:01:48;8.20;;;2.53;;
19733;SDS011;10018;51.230;7.860;2023-09-19T10:04:28;14.43;;;2.83;;
19733;SDS011;10018;51.230;7.860;2023-09-19T10:07:01;10.20;;;2.37;;
19733;SDS011;10018;51.230;7.860;2023-09-19T10:09:44;10.30;;;2.40;;
19733;SDS011;10018;51.230;7.860;2023-09-19T10:12:12;11.03;;;2.73;;
19733;SDS011;10018;51.230;7.860;2023-09-19T10:14:39;8.77;;;2.80;;
19733;SDS011;10018;51.230;7.860;2023-09-19T10:17:09;10.13;;;2.60;;
19733;SDS011;10018;51.230;7.860;2023-09-19T10:19:42;12.80;;;2.67;;
19733;SDS011;10018;51.230;7.860;2023-09-19T10:22:15;9.37;;;2.37;;
19733;SDS011;10018;51.230;7.860;2023-09-19T10:24:45;9.30;;;2.30;;
19733;SDS011;10018;51.230;7.860;2023-09-19T10:27:12;8.60;;;2.40;;
19733;SDS011;10018;51.230;7.860;2023-09-19T10:29:41;14.10;;;2.83;;
19733;SDS011;10018;51.230;7.860;2023-09-19T10:32:09;9.30;;;2.20;;
19733;SDS011;10018;51.230;7.860;2023-09-19T10:34:43;14.67;;;3.00;;
19733;SDS011;10018;51.230;7.860;2023-09-19T10:37:10;11.73;;;3.00;;
19733;SDS011;10018;51.230;7.860;2023-09-19T10:39:39;11.07;;;2.53;;
19733;SDS011;10018;51.230;7.860;2023-09-19T10:42:08;9.40;;;2.70;;
19733;SDS011;10018;51.230;7.860;2023-09-19T10:44:42;11.30;;;2.97;;
19733;SDS011;10018;51.230;7.860;2023-09-19T10:47:10;10.50;;;2.60;;
19733;SDS011;10018;51.230;7.860;2023-09-19T10:49:42;10.53;;;2.47;;
19733;SDS011;10018;51.230;7.860;2023-09-19T10:52:11;8.43;;;2.47;;
19733;SDS011;10018;51.230;7.860;2023-09-19T10:54:45;8.30;;;1.97;;
19733;SDS011;10018;51.230;7.860;2023-09-19T10:57:22;15.20;;;2.17;;
19733;SDS011;10018;51.230;7.860;2023-09-19T11:00:04;8.50;;;2.70;;
19733;SDS011;10018;51.230;7.860;2023-09-19T11:06:02;12.97;;;2.30;;
19733;SDS011;10018;51.230;7.860;2023-09-19T11:16:39;9.37;;;2.10;;
19733;SDS011;10018;51.230;7.860;2023-09-19T11:19:05;7.23;;;2.00;;
19733;SDS011;10018;51.230;7.860;2023-09-19T11:26:42;10.23;;;2.10;;
19733;SDS011;10018;51.230;7.860;2023-09-19T11:29:27;7.77;;;2.13;;
19733;SDS011;10018;51.230;7.860;2023-09-19T11:31:55;11.63;;;2.20;;
19733;SDS011;10018;51.230;7.860;2023-09-19T11:40:06;7.50;;;2.00;;
19733;SDS011;10018;51.230;7.860;2023-09-19T11:48:05;10.63;;;2.00;;
19733;SDS011;10018;51.230;7.860;2023-09-19T11:50:32;9.90;;;1.90;;
19733;SDS011;10018;51.230;7.860;2023-09-19T11:53:01;8.00;;;1.90;;
19733;SDS011;10018;51.230;7.860;2023-09-19T11:55:28;6.43;;;1.93;;
19733;SDS011;10018;51.230;7.860;2023-09-19T11:57:57;8.10;;;1.93;;
19733;SDS011;10018;51.230;7.860;2023-09-19T12:00:24;11.00;;;2.27;;
19733;SDS011;10018;51.230;7.860;2023-09-19T12:02:52;7.00;;;1.97;;
19733;SDS011;10018;51.230;7.860;2023-09-19T12:05:29;6.13;;;1.73;;
19733;SDS011;10018;51.230;7.860;2023-09-19T12:07:55;6.23;;;1.70;;
19733;SDS011;10018;51.230;7.860;2023-09-19T12:10:20;7.53;;;1.90;;
19733;SDS011;10018;51.230;7.860;2023-09-19T12:12:48;6.93;;;2.10;;
19733;SDS011;10018;51.230;7.860;2023-09-19T12:15:14;8.80;;;2.20;;
19733;SDS011;10018;51.230;7.860;2023-09-19T12:17:47;11.20;;;2.23;;
19733;SDS011;10018;51.230;7.860;2023-09-19T12:20:13;6.13;;;2.03;;
19733;SDS011;10018;51.230;7.860;2023-09-19T12:22:43;7.20;;;1.87;;
19733;SDS011;10018;51.230;7.860;2023-09-19T12:25:10;9.97;;;2.03;;
19733;SDS011;10018;51.230;7.860;2023-09-19T12:27:47;5.67;;;2.00;;
19733;SDS011;10018;51.230;7.860;2023-09-19T12:30:17;7.10;;;2.20;;
19733;SDS011;10018;51.230;7.860;2023-09-19T12:32:44;5.20;;;1.90;;
19733;SDS011;10018;51.230;7.860;2023-09-19T12:35:10;7.40;;;2.10;;
19733;SDS011;10018;51.230;7.860;2023-09-19T12:38:04;7.07;;;2.03;;
19733;SDS011;10018;51.230;7.860;2023-09-19T12:40:32;5.80;;;1.63;;
19733;SDS011;10018;51.230;7.860;2023-09-19T12:43:00;7.43;;;2.17;;
19733;SDS011;10018;51.230;7.860;2023-09-19T12:45:29;13.70;;;1.70;;
19733;SDS011;10018;51.230;7.860;2023-09-19T12:56:12;7.90;;;2.03;;
19733;SDS011;10018;51.230;7.860;2023-09-19T12:58:48;9.20;;;2.20;;
19733;SDS011;10018;51.230;7.860;2023-09-19T13:01:18;9.37;;;2.10;;
19733;SDS011;10018;51.230;7.860;2023-09-19T13:03:44;4.93;;;1.70;;
19733;SDS011;10018;51.230;7.860;2023-09-19T13:06:11;7.17;;;2.00;;
19733;SDS011;10018;51.230;7.860;2023-09-19T13:08:38;7.90;;;2.03;;
19733;SDS011;10018;51.230;7.860;2023-09-19T13:16:14;8.33;;;1.80;;
19733;SDS011;10018;51.230;7.860;2023-09-19T13:18:50;9.17;;;2.00;;
19733;SDS011;10018;51.230;7.860;2023-09-19T13:21:34;9.63;;;2.20;;
19733;SDS011;10018;51.230;7.860;2023-09-19T13:24:20;9.20;;;2.13;;
19733;SDS011;10018;51.230;7.860;2023-09-19T13:26:48;5.67;;;1.80;;
19733;SDS011;10018;51.230;7.860;2023-09-19T13:29:14;8.33;;;1.90;;
19733;SDS011;10018;51.230;7.860;2023-09-19T13:31:49;10.10;;;2.17;;
19733;SDS011;10018;51.230;7.860;2023-09-19T13:34:18;8.40;;;1.60;;
19733;SDS011;10018;51.230;7.860;2023-09-19T13:36:45;8.43;;;1.70;;
19733;SDS011;10018;51.230;7.860;2023-09-19T13:39:13;8.73;;;2.20;;
19733;SDS011;10018;51.230;7.860;2023-09-19T13:41:40;10.30;;;2.27;;
19733;SDS011;10018;51.230;7.860;2023-09-19T13:44:07;8.23;;;1.77;;
19733;SDS011;10018;51.230;7.860;2023-09-19T13:46:33;8.13;;;2.00;;
19733;SDS011;10018;51.230;7.860;2023-09-19T13:49:03;6.43;;;1.80;;
19733;SDS011;10018;51.230;7.860;2023-09-19T13:51:30;6.03;;;1.87;;
19733;SDS011;10018;51.230;7.860;2023-09-19T13:53:56;7.13;;;1.53;;
19733;SDS011;10018;51.230;7.860;2023-09-19T13:56:22;6.93;;;2.20;;
19733;SDS011;10018;51.230;7.860;2023-09-19T13:58:47;7.67;;;2.00;;
19733;SDS011;10018;51.230;7.860;2023-09-19T14:01:15;5.83;;;1.80;;
19733;SDS011;10018;51.230;7.860;2023-09-19T14:03:41;6.03;;;1.67;;
19733;SDS011;10018;51.230;7.860;2023-09-19T14:06:12;8.03;;;1.93;;
19733;SDS011;10018;51.230;7.860;2023-09-19T14:08:38;8.40;;;1.67;;
19733;SDS011;10018;51.230;7.860;2023-09-19T14:11:07;6.23;;;2.20;;
19733;SDS011;10018;51.230;7.860;2023-09-19T14:13:33;6.37;;;2.00;;
19733;SDS011;10018;51.230;7.860;2023-09-19T14:16:05;6.07;;;1.87;;
19733;SDS011;10018;51.230;7.860;2023-09-19T14:18:31;9.50;;;2.37;;
19733;SDS011;10018;51.230;7.860;2023-09-19T14:20:57;6.67;;;1.87;;
19733;SDS011;10018;51.230;7.860;2023-09-19T14:23:23;4.10;;;1.40;;
19733;SDS011;10018;51.230;7.860;2023-09-19T14:25:51;7.87;;;2.07;;
19733;SDS011;10018;51.230;7.860;2023-09-19T14:28:18;5.00;;;1.60;;
19733;SDS011;10018;51.230;7.860;2023-09-19T14:30:44;6.87;;;1.53;;
19733;SDS011;10018;51.230;7.860;2023-09-19T14:33:11;4.27;;;1.50;;
19733;SDS011;10018;51.230;7.860;2023-09-19T14:35:36;7.13;;;1.60;;
19733;SDS011;10018;51.230;7.860;2023-09-19T14:38:03;6.47;;;1.53;;
19733;SDS011;10018;51.230;7.860;2023-09-19T14:40:29;3.63;;;1.20;;
19733;SDS011;10018;51.230;7.860;2023-09-19T14:42:56;6.70;;;1.47;;
19733;SDS011;10018;51.230;7.860;2023-09-19T14:45:21;4.07;;;1.40;;
19733;SDS011;10018;51.230;7.860;2023-09-19T14:47:47;4.50;;;1.27;;
19733;SDS011;10018;51.230;7.860;2023-09-19T14:50:13;4.30;;;1.23;;
19733;SDS011;10018;51.230;7.860;2023-09-19T14:52:43;4.57;;;1.03;;
19733;SDS011;10018;51.230;7.860;2023-09-19T14:55:09;4.77;;;1.20;;
19733;SDS011;10018;51.230;7.860;2023-09-19T14:57:39;5.57;;;1.20;;
19733;SDS011;10018;51.230;7.860;2023-09-19T15:00:05;7.47;;;1.30;;
19733;SDS011;10018;51.230;7.860;2023-09-19T15:02:36;5.13;;;1.23;;
19733;SDS011;10018;51.230;7.860;2023-09-19T15:05:03;5.03;;;1.40;;
19733;SDS011;10018;51.230;7.860;2023-09-19T15:07:28;4.17;;;1.20;;
19733;SDS011;10018;51.230;7.860;2023-09-19T15:09:56;4.63;;;1.10;;
19733;SDS011;10018;51.230;7.860;2023-09-19T15:12:22;4.97;;;1.20;;
19733;SDS011;10018;51.230;7.860;2023-09-19T15:14:48;6.60;;;1.40;;
19733;SDS011;10018;51.230;7.860;2023-09-19T15:17:13;2.77;;;1.00;;
19733;SDS011;10018;51.230;7.860;2023-09-19T15:19:40;4.73;;;1.40;;
19733;SDS011;10018;51.230;7.860;2023-09-19T15:22:06;6.63;;;1.10;;
19733;SDS011;10018;51.230;7.860;2023-09-19T15:24:31;4.17;;;1.03;;
19733;SDS011;10018;51.230;7.860;2023-09-19T15:26:57;5.37;;;1.00;;
19733;SDS011;10018;51.230;7.860;2023-09-19T15:29:22;4.40;;;1.07;;
19733;SDS011;10018;51.230;7.860;2023-09-19T15:31:48;7.13;;;1.20;;
19733;SDS011;10018;51.230;7.860;2023-09-19T15:34:14;6.27;;;1.77;;
19733;SDS011;10018;51.230;7.860;2023-09-19T15:36:41;5.17;;;1.33;;
19733;SDS011;10018;51.230;7.860;2023-09-19T15:39:07;4.50;;;1.40;;
19733;SDS011;10018;51.230;7.860;2023-09-19T15:41:36;6.33;;;1.27;;
19733;SDS011;10018;51.230;7.860;2023-09-19T15:44:04;5.57;;;1.00;;
19733;SDS011;10018;51.230;7.860;2023-09-19T15:46:35;5.23;;;1.20;;
19733;SDS011;10018;51.230;7.860;2023-09-19T15:49:01;4.00;;;1.00;;
19733;SDS011;10018;51.230;7.860;2023-09-19T15:51:27;3.80;;;0.90;;
19733;SDS011;10018;51.230;7.860;2023-09-19T15:53:53;6.13;;;1.27;;